Time;durP1;ratioP1;P1;durP2;ratioP2;P2;SDS_P1;SDS_P2;PMS_P1;PMS_P2;Temp;Humidity;BMP_temperature;BMP_pressure;BME280_temperature;BME280_humidity;BME280_pressure;Samples;Min_cycle;Max_cycle;Signal;HPM_P1;HPM_P2
2022/01/13 00:02:24;;;;;;;27.23;16.53;;;3.50;71.20;3.20;98438.00;;;;5054408;28;20475;-87
2022/01/13 00:04:51;;;;;;;26.27;16.70;;;3.50;71.10;3.20;98446.00;;;;5054256;28;20439;-87
2022/01/13 00:07:18;;;;;;;27.53;16.57;;;3.50;71.20;3.20;98452.00;;;;5054286;28;20467;-87
2022/01/13 00:09:45;;;;;;;26.93;17.10;;;3.50;71.20;3.20;98455.00;;;;5052522;28;20865;-87
2022/01/13 00:12:17;;;;;;;29.83;16.83;;;3.50;71.30;3.10;98457.00;;;;5049174;28;20498;-87
2022/01/13 00:15:08;;;;;;;26.97;16.40;;;3.40;71.20;3.10;98464.00;;;;5054134;28;20457;-87
2022/01/13 00:18:00;;;;;;;24.83;15.73;;;3.40;72.10;3.10;98458.00;;;;5035316;28;20925;-87
2022/01/13 00:20:35;;;;;;;25.97;16.60;;;3.40;71.70;3.20;98466.00;;;;5038583;28;20479;-87
2022/01/13 00:25:52;;;;;;;25.60;16.23;;;3.40;71.80;3.20;98478.00;;;;5054700;28;20442;-87
2022/01/13 00:28:22;;;;;;;27.03;16.30;;;3.50;72.00;3.20;98472.00;;;;5051020;28;20971;-87
2022/01/13 00:30:53;;;;;;;29.10;17.50;;;3.50;72.10;3.30;98476.00;;;;5054470;28;20546;-87
2022/01/13 00:33:24;;;;;;;27.80;16.83;;;3.50;72.10;3.30;98475.00;;;;5054850;28;20450;-87
2022/01/13 00:35:53;;;;;;;26.67;16.90;;;3.50;72.00;3.30;98477.00;;;;5053973;28;20440;-87
2022/01/13 00:38:20;;;;;;;29.03;18.20;;;3.50;72.00;3.30;98466.00;;;;5054223;28;20509;-87
2022/01/13 00:40:47;;;;;;;28.47;17.17;;;3.50;72.00;3.30;98465.00;;;;5041605;28;20484;-87
2022/01/13 00:43:15;;;;;;;29.13;16.70;;;3.50;71.90;3.30;98473.00;;;;5042997;28;20443;-87
2022/01/13 00:45:43;;;;;;;30.90;18.83;;;3.50;72.00;3.30;98465.00;;;;5050573;28;21173;-86
2022/01/13 00:48:10;;;;;;;30.27;19.07;;;3.50;72.00;3.40;98462.00;;;;5054072;28;20447;-86
2022/01/13 00:50:38;;;;;;;29.23;17.63;;;3.50;72.10;3.40;98477.00;;;;5053968;28;20459;-87
2022/01/13 00:53:05;;;;;;;25.47;16.23;;;3.50;72.10;3.30;98465.00;;;;5050513;28;20436;-86
2022/01/13 00:55:45;;;;;;;26.33;16.57;;;3.60;72.00;3.30;98462.00;;;;5053128;28;20446;-87
2022/01/13 00:58:14;;;;;;;27.57;16.07;;;3.50;72.00;3.30;98465.00;;;;5053727;28;20435;-87
2022/01/13 01:00:44;;;;;;;27.80;16.67;;;3.50;71.90;3.30;98461.00;;;;5053530;28;20307;-87
2022/01/13 01:03:11;;;;;;;29.23;17.63;;;3.50;72.00;3.30;98467.00;;;;5053213;28;20227;-86
2022/01/13 01:05:38;;;;;;;27.07;17.07;;;3.50;72.30;3.40;98464.00;;;;5052149;28;20447;-87
2022/01/13 01:08:08;;;;;;;30.80;18.40;;;3.50;72.50;3.40;98459.00;;;;5062144;28;20469;-87
2022/01/13 01:10:36;;;;;;;27.93;17.03;;;3.50;72.50;3.40;98459.00;;;;5073381;28;20703;-86
2022/01/13 01:13:11;;;;;;;29.37;17.07;;;3.60;72.60;3.50;98466.00;;;;5053361;28;20455;-87
2022/01/13 01:15:41;;;;;;;29.37;17.23;;;3.60;72.70;3.50;98475.00;;;;5049385;28;20457;-87
2022/01/13 01:18:22;;;;;;;29.43;17.07;;;3.60;72.70;3.50;98476.00;;;;5053030;28;20228;-87
2022/01/13 01:21:03;;;;;;;29.87;17.17;;;3.70;72.80;3.60;98488.00;;;;5053145;28;20478;-87
2022/01/13 01:23:35;;;;;;;29.07;17.70;;;3.70;72.80;3.60;98480.00;;;;5052984;28;20439;-87
2022/01/13 01:26:07;;;;;;;29.30;18.93;;;3.70;72.70;3.60;98487.00;;;;5052016;28;20844;-87
2022/01/13 01:28:43;;;;;;;27.90;17.03;;;3.70;73.30;3.60;98496.00;;;;5053090;28;20201;-87
2022/01/13 01:31:12;;;;;;;26.07;16.57;;;3.80;72.50;3.60;98490.00;;;;5053381;28;20459;-87
2022/01/13 01:33:48;;;;;;;27.07;16.87;;;3.80;72.50;3.60;98501.00;;;;5052553;28;20907;-87
2022/01/13 01:36:16;;;;;;;28.03;16.67;;;3.80;72.50;3.60;98495.00;;;;5061235;28;20192;-87
2022/01/13 01:38:47;;;;;;;29.77;18.40;;;3.80;73.30;3.70;98491.00;;;;5053783;28;20443;-87
2022/01/13 01:41:16;;;;;;;27.30;16.73;;;3.80;72.70;3.70;98493.00;;;;5052720;28;20490;-86
2022/01/13 01:43:43;;;;;;;30.73;18.60;;;3.80;73.30;3.70;98492.00;;;;5053271;28;20959;-87
2022/01/13 01:46:10;;;;;;;32.77;18.60;;;3.90;72.80;3.70;98480.00;;;;5054641;28;20439;-87
2022/01/13 01:48:37;;;;;;;28.73;17.33;;;3.90;72.70;3.70;98485.00;;;;5053101;28;20946;-87
2022/01/13 01:51:07;;;;;;;30.30;16.97;;;3.90;72.30;3.70;98480.00;;;;5051646;28;20975;-87
2022/01/13 01:53:35;;;;;;;29.60;18.13;;;3.90;72.30;3.70;98490.00;;;;5048111;28;20439;-87
2022/01/13 01:56:05;;;;;;;29.40;18.00;;;3.90;72.30;3.70;98489.00;;;;5052231;28;20207;-87
2022/01/13 01:58:34;;;;;;;28.57;16.77;;;3.90;72.90;3.70;98490.00;;;;5066562;28;20299;-87
2022/01/13 02:01:02;;;;;;;25.37;15.97;;;3.90;72.20;3.70;98500.00;;;;5066008;28;20479;-86
2022/01/13 02:03:30;;;;;;;27.00;16.30;;;3.90;72.30;3.70;98494.00;;;;5052294;28;20638;-86
2022/01/13 02:05:57;;;;;;;29.20;16.47;;;3.80;72.20;3.70;98491.00;;;;5052219;28;20451;-87
2022/01/13 02:08:25;;;;;;;26.03;16.13;;;3.90;72.30;3.70;98502.00;;;;5053154;28;20439;-87
2022/01/13 02:10:53;;;;;;;28.13;16.83;;;3.90;72.20;3.70;98505.00;;;;5054173;28;20283;-87
2022/01/13 02:13:23;;;;;;;27.80;16.27;;;3.80;72.30;3.70;98498.00;;;;5061447;28;20275;-87
2022/01/13 02:16:01;;;;;;;27.67;16.53;;;3.80;72.40;3.70;98486.00;;;;5051952;28;20525;-87
2022/01/13 02:18:31;;;;;;;27.83;17.33;;;3.80;72.30;3.70;98490.00;;;;5051700;28;20514;-87
2022/01/13 02:21:01;;;;;;;24.83;14.93;;;3.90;72.50;3.70;98483.00;;;;5052264;28;20494;-87
2022/01/13 02:23:38;;;;;;;28.40;15.97;;;3.90;72.50;3.80;98488.00;;;;5052618;28;20975;-87
2022/01/13 02:26:10;;;;;;;26.37;16.17;;;3.90;72.30;3.70;98488.00;;;;5051908;28;20185;-87
2022/01/13 02:28:39;;;;;;;25.03;15.00;;;3.90;72.20;3.70;98483.00;;;;5058736;28;20477;-87
2022/01/13 02:31:08;;;;;;;26.07;16.47;;;3.90;72.10;3.70;98477.00;;;;5072507;28;20220;-87
2022/01/13 02:33:35;;;;;;;26.37;16.27;;;3.90;72.20;3.70;98478.00;;;;5064624;28;20725;-86
2022/01/13 02:36:04;;;;;;;25.20;15.53;;;3.90;72.20;3.70;98479.00;;;;5054341;28;20189;-86
2022/01/13 02:38:32;;;;;;;27.00;15.93;;;3.90;72.20;3.70;98481.00;;;;5058821;28;20474;-86
2022/01/13 02:41:01;;;;;;;28.97;16.57;;;3.80;72.20;3.70;98481.00;;;;5037678;28;20557;-86
2022/01/13 02:43:30;;;;;;;25.60;15.73;;;3.80;72.30;3.70;98493.00;;;;5055112;28;20201;-86
2022/01/13 02:46:17;;;;;;;24.17;15.60;;;3.80;72.20;3.70;98487.00;;;;5065454;28;20450;-87
2022/01/13 02:48:46;;;;;;;25.20;15.57;;;3.80;72.30;3.70;98478.00;;;;5052453;28;20505;-86
2022/01/13 02:51:15;;;;;;;27.07;16.40;;;3.80;72.40;3.70;98478.00;;;;5051796;28;20243;-87
2022/01/13 02:53:42;;;;;;;26.23;15.97;;;3.90;72.40;3.70;98477.00;;;;5048574;28;20192;-87
2022/01/13 02:56:09;;;;;;;26.10;15.73;;;3.90;72.50;3.70;98484.00;;;;5055075;28;20201;-86
2022/01/13 02:58:36;;;;;;;27.20;16.57;;;3.90;72.40;3.70;98484.00;;;;5053498;28;20232;-86
2022/01/13 03:01:06;;;;;;;28.87;16.80;;;3.90;72.50;3.80;98485.00;;;;5063406;28;20252;-86
2022/01/13 03:03:35;;;;;;;26.97;16.50;;;3.90;72.50;3.80;98484.00;;;;5051250;28;20200;-87
2022/01/13 03:06:07;;;;;;;28.73;17.57;;;3.90;72.60;3.80;98484.00;;;;5056744;28;20472;-86
2022/01/13 03:08:36;;;;;;;28.00;17.03;;;4.00;72.60;3.90;98481.00;;;;5071737;28;20433;-87
2022/01/13 03:11:04;;;;;;;30.23;17.43;;;4.10;72.70;3.90;98479.00;;;;5061915;28;20274;-86
2022/01/13 03:13:31;;;;;;;26.13;16.33;;;4.00;72.60;3.90;98476.00;;;;5055402;28;20548;-87
2022/01/13 03:15:58;;;;;;;30.40;17.40;;;4.00;72.60;3.90;98482.00;;;;5048730;28;20772;-87
2022/01/13 03:18:25;;;;;;;25.80;15.87;;;4.00;72.30;3.80;98478.00;;;;5069338;28;20275;-87
2022/01/13 03:20:52;;;;;;;22.20;14.07;;;4.00;72.20;3.80;98479.00;;;;5070656;28;20239;-87
2022/01/13 03:23:19;;;;;;;24.77;15.63;;;4.00;72.00;3.80;98469.00;;;;5054930;28;20508;-87
2022/01/13 03:25:48;;;;;;;26.33;15.73;;;4.00;72.20;3.80;98480.00;;;;5070961;28;20526;-87
2022/01/13 03:28:18;;;;;;;24.00;15.53;;;4.00;72.20;3.80;98476.00;;;;5055313;28;20549;-87
2022/01/13 03:30:46;;;;;;;25.27;15.40;;;4.00;72.90;3.80;98472.00;;;;5054589;28;20455;-87
2022/01/13 03:33:14;;;;;;;26.43;15.20;;;3.90;72.10;3.70;98467.00;;;;5055122;28;20258;-87
2022/01/13 03:35:43;;;;;;;27.07;16.47;;;3.90;72.20;3.70;98468.00;;;;5068001;28;20541;-86
2022/01/13 03:38:10;;;;;;;25.20;14.73;;;3.90;72.00;3.70;98476.00;;;;5068703;28;20211;-87
2022/01/13 03:40:38;;;;;;;24.90;15.17;;;3.90;72.00;3.70;98466.00;;;;5064179;28;20303;-87
2022/01/13 03:43:07;;;;;;;26.10;15.27;;;3.90;72.70;3.60;98477.00;;;;5056836;28;20271;-86
2022/01/13 03:45:34;;;;;;;25.87;14.37;;;3.90;72.20;3.70;98473.00;;;;5056539;28;20220;-86
2022/01/13 03:48:03;;;;;;;25.80;14.57;;;3.80;72.30;3.70;98477.00;;;;5056078;28;20664;-86
2022/01/13 03:50:30;;;;;;;23.60;14.30;;;3.80;72.50;3.70;98473.00;;;;5051752;28;20528;-86
2022/01/13 03:53:58;;;;;;;25.50;14.77;;;3.90;72.60;3.70;98469.00;;;;5055034;28;20514;-86
2022/01/13 03:57:54;;;;;;;24.07;14.73;;;3.90;72.40;3.70;98465.00;;;;5060742;28;21103;-87
2022/01/13 04:01:34;;;;;;;22.17;13.70;;;3.90;72.30;3.70;98462.00;;;;5073696;28;21043;-87
2022/01/13 04:04:01;;;;;;;25.03;14.53;;;3.90;72.30;3.60;98457.00;;;;5050928;28;20471;-87
2022/01/13 04:08:56;;;;;;;26.77;15.57;;;3.80;72.40;3.60;98465.00;;;;5059153;28;20212;-87
2022/01/13 04:11:29;;;;;;;28.03;15.33;;;3.80;72.40;3.60;98462.00;;;;5072471;28;20458;-86
2022/01/13 04:14:00;;;;;;;21.87;12.97;;;3.80;72.40;3.60;98465.00;;;;5056036;28;20841;-86
2022/01/13 04:16:32;;;;;;;26.67;15.37;;;3.80;72.60;3.70;98465.00;;;;5059508;28;20255;-86
2022/01/13 04:19:04;;;;;;;26.20;15.20;;;3.80;72.50;3.70;98470.00;;;;5071808;28;20660;-86
2022/01/13 04:21:33;;;;;;;25.37;14.67;;;3.80;72.70;3.70;98482.00;;;;5073004;28;20315;-86
2022/01/13 04:24:00;;;;;;;27.87;15.37;;;3.80;72.90;3.80;98489.00;;;;5067638;28;20211;-88
2022/01/13 04:26:30;;;;;;;26.87;15.60;;;3.90;73.00;3.80;98492.00;;;;5042530;28;20439;-86
2022/01/13 04:29:15;;;;;;;25.77;15.07;;;3.90;72.90;3.80;98485.00;;;;5053451;28;20481;-86
2022/01/13 04:31:46;;;;;;;26.47;15.13;;;3.90;72.90;3.80;98478.00;;;;5053135;28;20307;-86
2022/01/13 04:34:14;;;;;;;27.80;15.03;;;3.90;73.00;3.90;98482.00;;;;5053875;28;20653;-87
2022/01/13 04:36:41;;;;;;;27.07;15.30;;;3.90;73.00;3.90;98471.00;;;;5060991;28;20631;-87
2022/01/13 04:39:10;;;;;;;30.73;15.17;;;4.00;73.00;3.90;98467.00;;;;5059848;28;20287;-88
2022/01/13 04:41:40;;;;;;;30.43;16.10;;;4.00;73.00;3.90;98471.00;;;;5060866;28;20575;-84
2022/01/13 04:44:12;;;;;;;27.47;15.43;;;4.00;73.10;3.90;98467.00;;;;5059775;28;20645;-84
2022/01/13 04:46:40;;;;;;;25.87;16.03;;;4.00;73.00;3.90;98465.00;;;;5053023;28;20267;-84
2022/01/13 04:49:09;;;;;;;29.07;15.70;;;4.10;73.00;4.00;98458.00;;;;5058546;28;20188;-87
2022/01/13 04:51:38;;;;;;;25.63;15.03;;;4.10;72.90;4.00;98466.00;;;;5052453;28;20299;-87
2022/01/13 04:54:07;;;;;;;27.33;14.77;;;4.10;72.90;3.90;98463.00;;;;5053381;28;20841;-87
2022/01/13 04:56:41;;;;;;;25.43;14.20;;;4.10;72.80;3.90;98461.00;;;;5052048;28;20675;-89
2022/01/13 04:59:09;;;;;;;27.27;15.97;;;4.10;72.60;3.90;98466.00;;;;5051709;28;20246;-86
2022/01/13 05:01:43;;;;;;;23.67;14.07;;;4.20;72.60;3.90;98471.00;;;;5052937;28;20450;-86
2022/01/13 05:04:13;;;;;;;24.53;14.43;;;4.10;72.60;3.90;98474.00;;;;5055616;28;20508;-86
2022/01/13 05:06:42;;;;;;;27.37;14.90;;;4.10;72.80;3.90;98473.00;;;;5054290;28;20510;-87
2022/01/13 05:09:09;;;;;;;24.20;14.20;;;4.10;72.90;3.90;98468.00;;;;5053711;28;20577;-87
2022/01/13 05:11:36;;;;;;;28.63;15.57;;;4.00;72.70;3.90;98474.00;;;;5052637;28;20470;-87
2022/01/13 05:14:04;;;;;;;27.33;15.20;;;4.10;72.80;3.90;98472.00;;;;5052283;28;20702;-86
2022/01/13 05:16:37;;;;;;;26.90;14.13;;;4.00;72.90;3.90;98477.00;;;;5051840;28;20663;-85
2022/01/13 05:19:13;;;;;;;27.87;14.60;;;4.10;72.90;3.90;98472.00;;;;5052047;28;20256;-86
2022/01/13 05:22:06;;;;;;;27.27;14.73;;;4.10;72.90;4.00;98472.00;;;;5052264;28;20220;-85
2022/01/13 05:24:33;;;;;;;27.97;14.90;;;4.10;72.90;4.00;98472.00;;;;5052244;28;20211;-85
2022/01/13 05:27:00;;;;;;;27.37;14.37;;;4.10;73.00;4.00;98470.00;;;;5051020;28;20251;-84
2022/01/13 05:29:27;;;;;;;28.77;15.73;;;4.10;72.90;4.00;98482.00;;;;5051854;28;20649;-85
2022/01/13 05:31:54;;;;;;;28.97;15.40;;;4.20;73.00;4.00;98481.00;;;;5050767;28;20528;-85
2022/01/13 05:34:21;;;;;;;26.47;15.33;;;4.10;72.90;4.00;98476.00;;;;5052324;28;20616;-86
2022/01/13 05:36:50;;;;;;;28.27;15.50;;;4.10;72.90;4.10;98484.00;;;;5052196;28;20431;-86
2022/01/13 05:39:17;;;;;;;33.30;16.87;;;4.10;72.90;4.10;98490.00;;;;5051390;28;20630;-86
2022/01/13 05:41:44;;;;;;;27.00;15.33;;;4.10;72.90;4.10;98496.00;;;;5051609;28;20323;-86
2022/01/13 05:44:11;;;;;;;26.63;15.27;;;4.20;72.90;4.10;98506.00;;;;5051823;28;20250;-86
2022/01/13 05:46:38;;;;;;;29.40;15.63;;;4.20;72.90;4.10;98496.00;;;;5057069;28;20196;-86
2022/01/13 05:49:05;;;;;;;23.20;13.80;;;4.20;72.70;4.10;98498.00;;;;5052013;28;20284;-87
2022/01/13 05:51:33;;;;;;;29.80;15.33;;;4.20;72.70;4.10;98502.00;;;;5052250;28;20744;-86
2022/01/13 05:54:01;;;;;;;30.73;15.83;;;4.20;72.70;4.10;98496.00;;;;5071349;28;20572;-86
2022/01/13 05:56:29;;;;;;;28.73;16.00;;;4.20;72.80;4.00;98492.00;;;;5054160;28;20193;-85
2022/01/13 05:58:56;;;;;;;27.03;15.23;;;4.20;72.70;4.00;98504.00;;;;5051559;28;20189;-86
2022/01/13 06:01:23;;;;;;;30.43;17.20;;;4.10;72.70;4.00;98509.00;;;;5051785;28;20220;-86
2022/01/13 06:03:50;;;;;;;32.50;17.27;;;4.20;72.60;4.00;98517.00;;;;5040920;28;20225;-86
2022/01/13 06:06:17;;;;;;;32.37;17.23;;;4.10;72.70;4.00;98514.00;;;;5049974;28;20451;-85
2022/01/13 06:08:44;;;;;;;29.87;16.43;;;4.10;72.60;4.00;98513.00;;;;5051097;28;20228;-85
2022/01/13 06:11:13;;;;;;;30.20;16.20;;;4.10;72.70;4.00;98506.00;;;;5051164;28;20248;-86
2022/01/13 06:13:40;;;;;;;32.20;16.43;;;4.10;72.90;4.00;98514.00;;;;5051035;28;20279;-86
2022/01/13 06:16:07;;;;;;;29.80;16.97;;;4.10;72.90;4.00;98503.00;;;;5050520;28;20240;-86
2022/01/13 06:18:34;;;;;;;25.93;14.07;;;4.10;72.90;4.00;98511.00;;;;5050564;28;20235;-86
2022/01/13 06:21:01;;;;;;;31.60;16.43;;;4.10;72.80;3.90;98500.00;;;;5051474;28;20303;-87
2022/01/13 06:23:28;;;;;;;32.53;16.07;;;4.10;73.10;3.90;98507.00;;;;5050356;28;20244;-86
2022/01/13 06:25:57;;;;;;;26.93;15.10;;;4.00;72.30;3.80;98505.00;;;;5049958;28;20288;-87
2022/01/13 06:28:30;;;;;;;28.60;15.60;;;4.00;72.30;3.80;98512.00;;;;5053213;28;20189;-88
2022/01/13 06:30:57;;;;;;;32.07;16.60;;;4.00;72.50;3.80;98514.00;;;;5051105;28;20529;-87
2022/01/13 06:33:24;;;;;;;28.50;15.23;;;4.00;72.60;3.70;98523.00;;;;5050553;28;20201;-87
2022/01/13 06:35:52;;;;;;;29.60;15.83;;;3.90;72.50;3.70;98537.00;;;;5050222;28;20232;-87
2022/01/13 06:38:19;;;;;;;30.70;16.63;;;3.90;72.70;3.70;98535.00;;;;5060282;28;20442;-87
2022/01/13 06:40:47;;;;;;;32.10;16.67;;;3.90;72.70;3.60;98535.00;;;;5060903;28;20463;-86
2022/01/13 06:43:20;;;;;;;32.80;17.40;;;3.90;72.90;3.60;98530.00;;;;5051165;28;20490;-87
2022/01/13 06:45:55;;;;;;;31.97;16.97;;;3.80;72.90;3.70;98531.00;;;;5052951;28;20497;-88
2022/01/13 06:48:22;;;;;;;35.30;18.27;;;3.80;72.90;3.60;98535.00;;;;5067887;28;20290;-87
2022/01/13 06:50:52;;;;;;;35.07;18.07;;;3.80;72.90;3.60;98544.00;;;;5065313;28;20556;-87
2022/01/13 06:53:22;;;;;;;35.67;17.83;;;3.90;73.20;3.60;98543.00;;;;5057625;28;20465;-86
2022/01/13 06:55:52;;;;;;;33.30;17.97;;;3.80;73.10;3.60;98546.00;;;;5065626;28;20471;-87
2022/01/13 06:58:25;;;;;;;31.57;17.17;;;3.80;73.10;3.60;98549.00;;;;5074638;28;20437;-86
2022/01/13 07:01:03;;;;;;;33.10;18.17;;;3.80;73.20;3.50;98550.00;;;;5056106;28;20450;-87
2022/01/13 07:03:30;;;;;;;33.60;17.77;;;3.80;73.20;3.50;98546.00;;;;5054171;28;21216;-87
2022/01/13 07:06:05;;;;;;;30.23;15.90;;;3.70;73.30;3.60;98551.00;;;;5053848;28;20538;-88
2022/01/13 07:08:34;;;;;;;33.97;17.37;;;3.70;73.40;3.60;98557.00;;;;5050141;28;20439;-86
2022/01/13 07:11:06;;;;;;;33.80;17.43;;;3.70;73.50;3.60;98553.00;;;;5046662;28;20566;-87
2022/01/13 07:13:36;;;;;;;33.57;17.10;;;3.70;73.70;3.60;98560.00;;;;5057840;28;20283;-87
2022/01/13 07:16:06;;;;;;;32.73;17.30;;;3.80;73.90;3.70;98557.00;;;;5052977;28;20447;-87
2022/01/13 07:18:38;;;;;;;31.30;16.50;;;3.80;73.90;3.70;98567.00;;;;5053114;28;20463;-87
2022/01/13 07:21:07;;;;;;;32.90;17.27;;;3.80;74.00;3.70;98566.00;;;;5053144;28;20491;-87
2022/01/13 07:23:37;;;;;;;34.70;17.30;;;3.80;74.00;3.80;98559.00;;;;5057436;28;20527;-87
2022/01/13 07:26:04;;;;;;;32.53;17.67;;;3.80;73.90;3.80;98563.00;;;;5057560;28;20477;-87
2022/01/13 07:28:32;;;;;;;32.77;17.33;;;3.90;74.00;3.80;98552.00;;;;5053930;28;20673;-87
2022/01/13 07:31:00;;;;;;;33.23;17.13;;;3.90;74.00;3.90;98553.00;;;;5002827;28;20474;-87
2022/01/13 07:33:28;;;;;;;35.63;18.37;;;3.90;74.10;3.90;98548.00;;;;5050059;28;20713;-86
2022/01/13 07:35:56;;;;;;;32.10;17.40;;;4.00;74.10;4.00;98549.00;;;;5052578;28;20196;-87
2022/01/13 07:38:23;;;;;;;33.20;18.03;;;4.00;74.10;4.10;98549.00;;;;5044740;28;20854;-87
2022/01/13 07:40:51;;;;;;;34.73;18.77;;;4.00;74.00;4.20;98553.00;;;;5033961;28;20259;-87
2022/01/13 07:43:23;;;;;;;34.10;17.13;;;4.10;74.10;4.20;98556.00;;;;5032816;28;20248;-88
2022/01/13 07:45:51;;;;;;;30.13;16.20;;;4.10;73.90;4.30;98559.00;;;;5031469;28;21105;-87
2022/01/13 07:48:18;;;;;;;34.87;17.97;;;4.20;73.80;4.30;98551.00;;;;5012097;28;20639;-88
2022/01/13 07:50:47;;;;;;;34.07;17.60;;;4.40;74.00;4.40;98557.00;;;;5005669;28;20541;-87
2022/01/13 07:53:14;;;;;;;31.93;16.47;;;4.40;73.90;4.40;98561.00;;;;5010071;28;20793;-88
2022/01/13 07:55:42;;;;;;;32.40;17.63;;;4.30;73.70;4.50;98561.00;;;;5007685;28;20446;-88
2022/01/13 07:58:10;;;;;;;36.93;18.37;;;4.40;73.70;4.50;98556.00;;;;5008735;28;20193;-88
2022/01/13 08:00:37;;;;;;;31.53;17.83;;;4.40;73.60;4.60;98552.00;;;;5006368;28;20248;-88
2022/01/13 08:03:05;;;;;;;35.00;17.40;;;4.40;73.60;4.60;98560.00;;;;4999471;28;20221;-87
2022/01/13 08:05:32;;;;;;;34.83;17.87;;;4.50;73.50;4.70;98568.00;;;;5005322;28;21192;-87
2022/01/13 08:08:00;;;;;;;39.20;18.83;;;4.50;73.60;4.70;98565.00;;;;5002804;28;20316;-87
2022/01/13 08:10:28;;;;;;;31.53;17.37;;;4.50;73.70;4.70;98571.00;;;;5008964;28;20290;-84
2022/01/13 08:12:55;;;;;;;33.63;17.73;;;4.50;73.50;4.80;98584.00;;;;5037432;28;20197;-85
2022/01/13 08:15:23;;;;;;;35.87;18.07;;;4.60;73.50;4.80;98583.00;;;;5049777;28;20196;-85
2022/01/13 08:20:35;;;;;;;33.60;17.77;;;4.60;73.20;4.80;98593.00;;;;5037102;28;20216;-86
2022/01/13 08:23:04;;;;;;;34.87;18.10;;;4.60;73.30;4.80;98586.00;;;;5017165;28;20229;-86
2022/01/13 08:25:32;;;;;;;35.47;18.77;;;4.60;73.20;4.80;98591.00;;;;5001373;28;20283;-86
2022/01/13 08:27:59;;;;;;;34.70;18.17;;;4.60;73.20;4.90;98583.00;;;;5010425;28;20710;-86
2022/01/13 08:30:26;;;;;;;35.50;18.30;;;4.70;73.20;4.90;98580.00;;;;5006118;28;20977;-86
2022/01/13 08:32:53;;;;;;;34.30;17.97;;;4.70;73.40;4.90;98575.00;;;;5012325;28;20287;-85
2022/01/13 08:35:21;;;;;;;35.93;18.40;;;4.70;73.20;4.90;98586.00;;;;5007566;28;20272;-88
2022/01/13 08:37:48;;;;;;;31.20;17.17;;;4.80;72.90;4.90;98585.00;;;;5008726;28;20678;-86
2022/01/13 08:40:17;;;;;;;31.10;17.33;;;4.80;72.60;4.90;98581.00;;;;4999251;28;20310;-86
2022/01/13 08:42:45;;;;;;;31.37;16.47;;;4.70;72.50;4.90;98567.00;;;;5001685;28;20367;-87
2022/01/13 08:45:14;;;;;;;34.00;18.33;;;4.70;72.50;4.90;98577.00;;;;5003609;28;20201;-86
2022/01/13 08:47:41;;;;;;;31.90;16.97;;;4.70;72.60;4.90;98596.00;;;;4998065;28;20292;-87
2022/01/13 08:50:10;;;;;;;35.43;18.60;;;4.70;72.40;4.90;98600.00;;;;4997381;28;20200;-85
2022/01/13 08:52:38;;;;;;;34.43;17.50;;;4.70;72.60;4.90;98600.00;;;;5005869;28;20280;-85
2022/01/13 08:55:07;;;;;;;32.83;17.10;;;4.70;72.80;4.90;98609.00;;;;4999159;28;20792;-85
2022/01/13 08:57:36;;;;;;;36.17;19.27;;;4.70;72.90;4.90;98617.00;;;;5004142;28;20200;-84
2022/01/13 09:00:07;;;;;;;34.90;18.77;;;4.70;72.90;4.90;98614.00;;;;5005091;28;20309;-85
2022/01/13 09:02:37;;;;;;;34.50;17.67;;;4.70;72.80;4.90;98616.00;;;;5005800;28;20598;-85
2022/01/13 09:05:06;;;;;;;36.87;18.33;;;4.70;73.30;4.90;98618.00;;;;5004641;28;20307;-84
2022/01/13 09:07:33;;;;;;;34.53;17.60;;;4.70;72.80;5.00;98618.00;;;;5045168;28;20674;-84
2022/01/13 09:10:00;;;;;;;34.03;17.87;;;4.70;72.90;5.00;98613.00;;;;5036035;28;20233;-84
2022/01/13 09:12:27;;;;;;;38.90;20.10;;;4.80;73.10;5.00;98616.00;;;;5039038;28;20283;-84
2022/01/13 09:15:02;;;;;;;37.23;18.77;;;4.80;73.10;5.00;98622.00;;;;5039772;28;20671;-85
2022/01/13 09:17:29;;;;;;;32.30;17.17;;;4.80;73.00;5.00;98616.00;;;;5039968;28;20228;-84
2022/01/13 09:19:57;;;;;;;33.47;17.30;;;4.80;72.90;5.10;98621.00;;;;5036901;28;20688;-85
2022/01/13 09:22:27;;;;;;;36.70;18.63;;;4.80;73.00;5.10;98627.00;;;;5036957;28;20292;-84
2022/01/13 09:24:57;;;;;;;35.00;18.20;;;4.90;73.20;5.10;98617.00;;;;5038954;28;20324;-85
2022/01/13 09:27:24;;;;;;;35.00;17.37;;;4.90;73.10;5.10;98617.00;;;;5036302;28;20205;-86
2022/01/13 09:29:51;;;;;;;30.77;16.20;;;4.90;72.90;5.00;98618.00;;;;5038691;28;20280;-86
2022/01/13 09:32:19;;;;;;;31.83;17.43;;;5.40;73.10;5.00;98625.00;;;;5038999;28;20189;-85
2022/01/13 09:34:46;;;;;;;31.47;16.73;;;4.90;73.40;5.00;98625.00;;;;5039889;28;20287;-87
2022/01/13 09:37:14;;;;;;;33.03;16.73;;;4.90;73.40;5.00;98623.00;;;;5039837;28;20271;-87
2022/01/13 09:39:41;;;;;;;34.70;17.83;;;4.90;72.80;5.10;98627.00;;;;5038766;28;20200;-86
2022/01/13 09:42:11;;;;;;;31.60;16.03;;;4.90;72.90;5.10;98633.00;;;;5038183;28;20217;-86
2022/01/13 09:44:38;;;;;;;36.13;17.93;;;4.90;72.90;5.10;98636.00;;;;5038701;28;20220;-87
2022/01/13 09:47:06;;;;;;;32.40;16.63;;;4.90;73.00;5.20;98633.00;;;;5039454;28;20201;-86
2022/01/13 09:49:35;;;;;;;35.53;16.80;;;5.00;73.20;5.20;98626.00;;;;5039566;28;20227;-86
2022/01/13 09:52:03;;;;;;;29.83;16.33;;;5.00;73.00;5.20;98623.00;;;;5039819;28;20339;-86
2022/01/13 09:54:30;;;;;;;35.50;16.93;;;5.00;73.10;5.20;98632.00;;;;5039495;28;20200;-86
2022/01/13 09:56:57;;;;;;;30.20;16.13;;;5.00;73.00;5.30;98610.00;;;;5040422;28;20611;-87
2022/01/13 09:59:24;;;;;;;31.60;16.40;;;5.00;73.00;5.30;98628.00;;;;5037517;28;20722;-87
2022/01/13 10:01:51;;;;;;;36.17;19.23;;;5.10;72.80;5.30;98623.00;;;;5039035;28;20221;-86
2022/01/13 10:04:19;;;;;;;33.80;17.07;;;5.10;72.00;5.30;98635.00;;;;5039065;28;20249;-86
2022/01/13 10:06:48;;;;;;;37.70;18.37;;;5.10;72.10;5.30;98616.00;;;;5066835;23;20211;-88
2022/01/13 10:09:17;;;;;;;35.57;16.97;;;5.20;71.80;5.30;98621.00;;;;5068333;28;20220;-87
2022/01/13 10:11:53;;;;;;;32.03;16.00;;;6.40;72.90;5.20;98616.00;;;;5052052;28;20826;-86
2022/01/13 10:17:18;;;;;;;30.90;16.40;;;5.10;72.30;5.20;98622.00;;;;5046942;28;20258;-88
2022/01/13 10:19:49;;;;;;;28.40;15.93;;;5.10;72.20;5.20;98610.00;;;;5046427;28;20203;-86
2022/01/13 10:22:23;;;;;;;33.13;15.90;;;5.00;72.10;5.20;98624.00;;;;5045318;28;20816;-86
2022/01/13 10:24:53;;;;;;;31.43;16.03;;;5.00;72.50;5.20;98610.00;;;;5044729;28;20239;-87
2022/01/13 10:27:31;;;;;;;35.23;16.90;;;5.00;72.50;5.20;98598.00;;;;5050589;28;20687;-85
2022/01/13 10:30:00;;;;;;;31.67;16.17;;;5.10;72.70;5.30;98601.00;;;;5051551;28;20223;-85
2022/01/13 10:32:34;;;;;;;33.20;17.23;;;5.10;72.80;5.30;98599.00;;;;5052610;28;20224;-86
2022/01/13 10:35:06;;;;;;;30.07;15.77;;;5.10;72.90;5.40;98592.00;;;;5052862;28;20200;-84
2022/01/13 10:37:40;;;;;;;39.37;19.40;;;5.30;72.80;5.30;98595.00;;;;5052746;28;20234;-85
2022/01/13 10:40:13;;;;;;;31.93;17.07;;;5.20;72.20;5.40;98605.00;;;;5049039;28;20197;-84
2022/01/13 10:43:10;;;;;;;35.33;16.73;;;5.20;72.30;5.40;98591.00;;;;5051666;28;20201;-84
2022/01/13 10:45:45;;;;;;;33.07;16.57;;;6.00;72.70;5.40;98581.00;;;;5039325;28;20527;-84
2022/01/13 10:48:22;;;;;;;34.77;17.77;;;5.10;72.30;5.40;98575.00;;;;5052504;28;20199;-83
2022/01/13 10:51:02;;;;;;;33.97;18.70;;;5.20;72.40;5.50;98573.00;;;;5047465;28;20212;-83
2022/01/13 10:53:37;;;;;;;36.47;18.87;;;5.20;72.50;5.50;98584.00;;;;5051149;28;20188;-83
2022/01/13 10:56:09;;;;;;;29.57;15.40;;;5.30;72.50;5.50;98577.00;;;;5052641;28;20235;-84
2022/01/13 10:58:42;;;;;;;31.83;16.93;;;5.30;72.20;5.50;98575.00;;;;5051574;28;20691;-84
2022/01/13 11:01:14;;;;;;;32.73;16.57;;;5.30;72.20;5.50;98573.00;;;;5048209;28;20208;-84
2022/01/13 11:03:46;;;;;;;33.80;17.17;;;5.30;72.00;5.50;98578.00;;;;5052186;28;20235;-84
2022/01/13 11:06:14;;;;;;;36.27;17.27;;;5.30;72.40;5.50;98572.00;;;;5052555;28;20684;-83
2022/01/13 11:08:53;;;;;;;32.90;17.30;;;5.30;72.30;5.50;98589.00;;;;5052655;28;20656;-83
2022/01/13 11:11:25;;;;;;;34.70;18.43;;;5.30;72.10;5.50;98581.00;;;;5050792;28;20209;-84
2022/01/13 11:13:55;;;;;;;41.60;20.10;;;5.30;72.10;5.50;98573.00;;;;5052481;28;20196;-83
2022/01/13 11:16:24;;;;;;;30.70;17.37;;;5.30;71.80;5.50;98583.00;;;;5050638;28;20666;-84
2022/01/13 11:18:52;;;;;;;37.20;19.27;;;5.30;71.70;5.50;98590.00;;;;5049268;28;20219;-89
2022/01/13 11:21:21;;;;;;;35.77;18.40;;;5.30;72.00;5.50;98592.00;;;;5049958;28;20300;-89